createdAt,value
2022-07-31T00:02:09.633Z,13.45
2022-07-31T00:04:56.468Z,13.43
2022-07-31T00:07:43.093Z,13.41
2022-07-31T00:10:30.382Z,13.38
2022-07-31T00:13:17.307Z,13.37
2022-07-31T00:16:04.075Z,13.31
2022-07-31T00:18:52.203Z,13.29
2022-07-31T00:21:38.971Z,13.25
2022-07-31T00:24:27.040Z,13.18
2022-07-31T00:27:16.484Z,13.10
2022-07-31T00:30:03.404Z,12.98
2022-07-31T00:32:51.989Z,13.02
2022-07-31T00:35:40.219Z,13.02
2022-07-31T00:38:27.688Z,13.00
2022-07-31T00:41:14.413Z,12.97
2022-07-31T00:44:01.167Z,12.96
2022-07-31T00:46:48.398Z,12.91
2022-07-31T00:49:37.732Z,12.93
2022-07-31T00:52:26.314Z,12.87
2022-07-31T00:55:12.866Z,12.87
2022-07-31T00:57:59.563Z,12.84
2022-07-31T01:00:46.264Z,12.80
2022-07-31T01:03:33.045Z,12.79
2022-07-31T01:06:19.959Z,12.74
2022-07-31T01:09:08.275Z,12.69
2022-07-31T01:12:01.837Z,12.61
2022-07-31T01:14:52.638Z,12.55
2022-07-31T01:17:41.272Z,12.52
2022-07-31T01:20:30.179Z,12.46
2022-07-31T01:23:39.435Z,12.40
2022-07-31T01:26:50.642Z,12.34
2022-07-31T01:29:45.470Z,12.38
2022-07-31T01:32:37.276Z,12.36
2022-07-31T01:35:29.683Z,12.36
2022-07-31T01:38:20.903Z,12.33
2022-07-31T01:41:11.643Z,12.18
2022-07-31T01:43:59.877Z,12.25
2022-07-31T01:46:49.723Z,12.25
2022-07-31T01:49:39.453Z,12.15
2022-07-31T01:52:29.490Z,12.00
2022-07-31T01:55:17.748Z,11.98
2022-07-31T01:58:06.792Z,12.06
2022-07-31T02:00:55.527Z,12.02
2022-07-31T02:03:46.383Z,11.92
2022-07-31T02:06:40.689Z,11.84
2022-07-31T02:09:29.006Z,11.73
2022-07-31T02:12:16.223Z,11.76
2022-07-31T02:15:05.637Z,11.76
2022-07-31T02:17:54.436Z,11.75
2022-07-31T02:20:56.396Z,11.69
2022-07-31T02:23:45.435Z,11.65
2022-07-31T02:26:34.940Z,11.65
2022-07-31T02:29:23.080Z,11.63
2022-07-31T02:32:11.898Z,11.61
2022-07-31T02:35:01.427Z,11.60
2022-07-31T02:37:52.614Z,11.63
2022-07-31T02:40:42.466Z,11.64
2022-07-31T02:43:32.044Z,11.64
2022-07-31T02:46:23.224Z,11.58
2022-07-31T02:49:10.730Z,11.57
2022-07-31T02:51:58.621Z,11.60
2022-07-31T02:54:47.636Z,11.56
2022-07-31T02:57:34.827Z,11.60
2022-07-31T03:00:27.069Z,11.59
2022-07-31T03:03:14.607Z,11.53
2022-07-31T03:06:02.666Z,11.38
2022-07-31T03:08:49.749Z,11.41
2022-07-31T03:11:41.759Z,11.25
2022-07-31T03:14:32.748Z,11.36
2022-07-31T03:17:20.436Z,11.34
2022-07-31T03:20:08.336Z,11.34
2022-07-31T03:22:55.289Z,11.32
2022-07-31T03:25:43.288Z,11.36
2022-07-31T03:28:31.177Z,11.32
2022-07-31T03:31:17.870Z,11.32
2022-07-31T03:34:04.595Z,11.30
2022-07-31T03:36:52.825Z,11.30
2022-07-31T03:39:39.838Z,11.32
2022-07-31T03:42:32.128Z,11.30
2022-07-31T03:45:22.310Z,11.34
2022-07-31T03:48:10.123Z,11.36
2022-07-31T03:50:59.491Z,11.29
2022-07-31T03:53:50.135Z,11.26
2022-07-31T03:57:01.117Z,11.20
2022-07-31T03:59:50.319Z,11.27
2022-07-31T04:02:38.527Z,11.33
2022-07-31T04:05:42.235Z,11.42
2022-07-31T04:08:29.114Z,11.44
2022-07-31T04:11:17.988Z,11.45
2022-07-31T04:14:04.784Z,11.50
2022-07-31T04:16:52.215Z,11.56
2022-07-31T04:19:40.533Z,11.60
2022-07-31T04:22:27.280Z,11.67
2022-07-31T04:25:15.386Z,11.72
2022-07-31T04:28:07.226Z,11.77
2022-07-31T04:30:54.161Z,11.80
2022-07-31T04:33:47.123Z,11.87
2022-07-31T04:36:36.680Z,12.11
2022-07-31T04:39:23.577Z,12.17
2022-07-31T04:42:11.645Z,12.32
2022-07-31T04:44:58.560Z,12.40
2022-07-31T04:47:45.377Z,12.42
2022-07-31T04:50:33.106Z,12.48
2022-07-31T04:53:21.661Z,12.56
2022-07-31T04:56:26.948Z,12.69
2022-07-31T04:59:17.047Z,12.80
2022-07-31T05:02:07.939Z,12.91
2022-07-31T05:04:56.506Z,13.08
2022-07-31T05:07:50.857Z,13.49
2022-07-31T05:11:04.103Z,14.83
2022-07-31T05:13:51.230Z,16.04
2022-07-31T05:16:39.092Z,16.62
2022-07-31T05:19:29.825Z,16.73
2022-07-31T05:22:35.544Z,16.71
2022-07-31T05:25:46.813Z,16.48
2022-07-31T05:28:33.700Z,16.25
2022-07-31T05:31:20.622Z,16.22
2022-07-31T05:34:08.688Z,16.36
2022-07-31T05:36:55.649Z,16.36
2022-07-31T05:39:42.879Z,16.46
2022-07-31T05:42:50.137Z,16.57
2022-07-31T05:46:03.422Z,16.63
2022-07-31T05:48:52.396Z,16.67
2022-07-31T05:51:40.057Z,16.88
2022-07-31T05:54:27.528Z,17.04
2022-07-31T05:57:33.942Z,17.17
2022-07-31T06:00:25.214Z,17.28
2022-07-31T06:03:12.524Z,17.33
2022-07-31T06:06:16.936Z,17.63
2022-07-31T06:09:05.501Z,17.64
2022-07-31T06:11:57.164Z,17.78
2022-07-31T06:14:43.844Z,17.80
2022-07-31T06:17:50.959Z,17.96
2022-07-31T06:20:46.577Z,18.04
2022-07-31T06:23:33.367Z,18.11
2022-07-31T06:26:26.833Z,18.06
2022-07-31T06:29:14.606Z,18.55
2022-07-31T06:32:01.742Z,18.65
2022-07-31T06:34:51.387Z,18.88
2022-07-31T06:37:38.415Z,18.92
2022-07-31T06:40:25.302Z,18.88
2022-07-31T06:43:30.905Z,18.98
2022-07-31T06:46:49.123Z,19.19
2022-07-31T06:49:56.788Z,19.37
2022-07-31T06:52:48.473Z,19.50
2022-07-31T06:55:36.983Z,19.93
2022-07-31T06:58:32.584Z,19.91
2022-07-31T07:01:21.254Z,20.16
2022-07-31T07:04:08.616Z,20.14
2022-07-31T07:06:56.788Z,20.30
2022-07-31T07:09:43.983Z,20.55
2022-07-31T07:12:36.027Z,20.86
2022-07-31T07:15:23.252Z,20.86
2022-07-31T07:18:09.924Z,20.97
2022-07-31T07:21:10.053Z,20.95
2022-07-31T07:23:58.523Z,20.82
2022-07-31T07:26:56.697Z,20.60
2022-07-31T07:29:43.534Z,20.51
2022-07-31T07:32:30.237Z,21.10
2022-07-31T07:35:17.319Z,21.16
2022-07-31T07:38:11.965Z,21.36
2022-07-31T07:41:01.010Z,21.46
2022-07-31T07:43:51.728Z,21.53
2022-07-31T07:46:39.656Z,21.72
2022-07-31T07:49:31.654Z,21.88
2022-07-31T07:52:45.159Z,22.15
2022-07-31T07:56:02.228Z,22.29
2022-07-31T07:59:14.886Z,22.43
2022-07-31T08:02:20.898Z,22.30
2022-07-31T08:05:08.785Z,22.42
2022-07-31T08:07:55.249Z,22.29
2022-07-31T08:10:57.463Z,22.44
2022-07-31T08:14:03.093Z,22.36
2022-07-31T08:17:24.985Z,22.40
2022-07-31T08:20:12.081Z,22.84
2022-07-31T08:22:59.301Z,23.02
2022-07-31T08:25:45.901Z,23.01
2022-07-31T08:28:33.858Z,23.00
2022-07-31T08:31:24.118Z,22.97
2022-07-31T08:34:40.371Z,22.96
2022-07-31T08:37:52.384Z,23.15
2022-07-31T08:40:43.718Z,23.37
2022-07-31T08:44:00.578Z,23.54
2022-07-31T08:46:41.686Z,23.69
2022-07-31T08:49:31.398Z,23.78
2022-07-31T08:52:20.319Z,23.73
2022-07-31T08:55:55.464Z,23.91
2022-07-31T08:58:23.813Z,23.89
2022-07-31T09:01:13.567Z,24.02
2022-07-31T09:04:02.879Z,24.24
2022-07-31T09:06:50.214Z,24.31
2022-07-31T09:09:41.323Z,24.62
2022-07-31T09:12:38.584Z,24.72
2022-07-31T09:15:28.789Z,24.88
2022-07-31T09:18:18.779Z,24.79
2022-07-31T09:21:09.012Z,24.89
2022-07-31T09:23:55.611Z,24.93
2022-07-31T09:26:42.803Z,24.96
2022-07-31T09:29:35.665Z,25.24
2022-07-31T09:32:23.899Z,25.30
2022-07-31T09:35:40.010Z,25.23
2022-07-31T09:38:34.794Z,25.17
2022-07-31T09:41:58.201Z,25.22
2022-07-31T09:45:24.303Z,25.33
2022-07-31T09:48:18.298Z,25.41
2022-07-31T09:51:16.909Z,25.46
2022-07-31T09:54:09.305Z,25.72
2022-07-31T09:57:18.928Z,25.78
2022-07-31T10:00:17.147Z,25.95
2022-07-31T10:03:08.438Z,25.98
2022-07-31T10:05:56.053Z,26.04
2022-07-31T10:08:48.321Z,26.13
2022-07-31T10:11:59.853Z,26.14
2022-07-31T10:14:53.346Z,26.21
2022-07-31T10:17:45.162Z,26.36
2022-07-31T10:20:53.337Z,26.54
2022-07-31T10:23:50.091Z,26.45
2022-07-31T10:26:59.254Z,26.34
2022-07-31T10:29:45.386Z,26.39
2022-07-31T10:32:33.827Z,26.54
2022-07-31T10:35:55.752Z,26.61
2022-07-31T10:39:28.647Z,26.66
2022-07-31T10:42:37.057Z,26.77
2022-07-31T10:45:25.398Z,26.87
2022-07-31T10:48:21.421Z,26.97
2022-07-31T10:51:22.644Z,26.82
2022-07-31T10:54:25.474Z,26.78
2022-07-31T10:57:55.288Z,26.66
2022-07-31T11:01:07.878Z,26.62
2022-07-31T11:04:07.548Z,26.84
2022-07-31T11:07:19.989Z,27.01
2022-07-31T11:10:24.782Z,27.13
2022-07-31T11:13:47.155Z,27.25
2022-07-31T11:16:55.744Z,27.41
2022-07-31T11:19:59.731Z,27.29
2022-07-31T11:22:57.734Z,27.28
2022-07-31T11:25:46.587Z,27.31
2022-07-31T11:28:33.682Z,27.44
2022-07-31T11:31:20.237Z,27.63
2022-07-31T11:34:08.525Z,27.69
2022-07-31T11:36:55.874Z,27.43
2022-07-31T11:39:43.869Z,27.12
2022-07-31T11:42:44.736Z,27.17
2022-07-31T11:45:33.590Z,26.96
2022-07-31T11:48:25.446Z,26.86
2022-07-31T11:51:22.731Z,26.92
2022-07-31T11:54:09.505Z,27.14
2022-07-31T11:56:57.283Z,27.34
2022-07-31T11:59:45.833Z,27.55
2022-07-31T12:02:35.410Z,27.56
2022-07-31T12:05:38.369Z,27.58
2022-07-31T12:08:30.180Z,27.52
2022-07-31T12:11:19.567Z,27.49
2022-07-31T12:14:06.034Z,27.23
2022-07-31T12:16:52.914Z,27.35
2022-07-31T12:19:39.754Z,27.36
2022-07-31T12:22:26.678Z,27.66
2022-07-31T12:25:14.612Z,27.87
2022-07-31T12:28:01.378Z,27.82
2022-07-31T12:30:59.557Z,27.68
2022-07-31T12:33:46.231Z,27.62
2022-07-31T12:36:32.945Z,27.46
2022-07-31T12:39:19.725Z,27.52
2022-07-31T12:42:08.055Z,27.56
2022-07-31T12:44:56.875Z,27.40
2022-07-31T12:47:45.811Z,26.97
2022-07-31T12:50:38.219Z,27.10
2022-07-31T12:53:25.147Z,27.12
2022-07-31T12:56:15.496Z,27.39
2022-07-31T12:59:03.619Z,27.47
2022-07-31T13:01:50.472Z,27.42
2022-07-31T13:04:37.226Z,27.70
2022-07-31T13:07:25.552Z,28.04
2022-07-31T13:10:20.160Z,28.23
2022-07-31T13:13:10.718Z,28.42
2022-07-31T13:15:58.706Z,28.37
2022-07-31T13:18:47.608Z,28.10
2022-07-31T13:21:48.806Z,27.76
2022-07-31T13:24:45.164Z,27.63
2022-07-31T13:27:33.996Z,27.50
2022-07-31T13:30:26.942Z,27.30
2022-07-31T13:33:15.609Z,26.90
2022-07-31T13:36:02.197Z,26.82
2022-07-31T13:38:49.123Z,26.66
2022-07-31T13:41:35.987Z,26.56
2022-07-31T13:44:25.308Z,26.36
2022-07-31T13:47:11.935Z,26.26
2022-07-31T13:50:00.149Z,26.10
2022-07-31T13:52:46.992Z,26.08
2022-07-31T13:55:33.757Z,25.97
2022-07-31T13:58:20.483Z,25.89
2022-07-31T14:01:07.535Z,25.68
2022-07-31T14:03:54.030Z,25.48
2022-07-31T14:06:42.560Z,25.26
2022-07-31T14:09:34.272Z,25.06
2022-07-31T14:12:21.325Z,24.96
2022-07-31T14:15:09.570Z,24.95
2022-07-31T14:17:56.385Z,24.96
2022-07-31T14:20:43.613Z,25.20
2022-07-31T14:23:34.353Z,25.17
2022-07-31T14:26:24.148Z,25.35
2022-07-31T14:29:12.053Z,25.38
2022-07-31T14:31:58.535Z,25.29
2022-07-31T14:34:48.519Z,25.30
2022-07-31T14:37:36.839Z,25.39
2022-07-31T14:40:26.167Z,25.40
2022-07-31T14:43:13.256Z,25.51
2022-07-31T14:46:00.015Z,25.40
2022-07-31T14:48:46.708Z,25.49
2022-07-31T14:51:33.581Z,25.68
2022-07-31T14:54:20.293Z,25.94
2022-07-31T14:57:08.479Z,26.20
2022-07-31T14:59:55.533Z,26.30
2022-07-31T15:02:42.590Z,26.67
2022-07-31T15:06:49.302Z,26.86
2022-07-31T15:08:36.346Z,27.08
2022-07-31T15:11:23.174Z,27.38
2022-07-31T15:14:31.277Z,27.25
2022-07-31T15:17:20.224Z,27.25
2022-07-31T15:20:07.530Z,27.33
2022-07-31T15:22:54.131Z,27.39
2022-07-31T15:25:41.044Z,27.30
2022-07-31T15:28:27.795Z,27.12
2022-07-31T15:31:16.724Z,27.10
2022-07-31T15:34:03.533Z,27.07
2022-07-31T15:36:50.296Z,26.84
2022-07-31T15:39:37.880Z,26.73
2022-07-31T15:42:24.653Z,26.40
2022-07-31T15:45:18.997Z,26.22
2022-07-31T15:48:10.116Z,26.45
2022-07-31T15:50:56.786Z,26.27
2022-07-31T15:53:44.171Z,26.31
2022-07-31T15:56:32.860Z,26.42
2022-07-31T15:59:24.996Z,26.67
2022-07-31T16:02:12.037Z,26.39
2022-07-31T16:05:11.389Z,26.02
2022-07-31T16:08:30.116Z,25.84
2022-07-31T16:11:15.352Z,25.75
2022-07-31T16:14:02.020Z,25.58
2022-07-31T16:16:52.688Z,25.37
2022-07-31T16:19:44.446Z,25.27
2022-07-31T16:22:32.748Z,25.12
2022-07-31T16:25:19.212Z,25.09
2022-07-31T16:28:06.293Z,25.17
2022-07-31T16:30:57.635Z,25.15
2022-07-31T16:33:47.155Z,25.03
2022-07-31T16:36:38.354Z,24.91
2022-07-31T16:39:26.292Z,24.83
2022-07-31T16:42:13.068Z,24.80
2022-07-31T16:44:59.862Z,24.74
2022-07-31T16:47:51.407Z,24.69
2022-07-31T16:50:38.287Z,24.72
2022-07-31T16:54:11.366Z,24.74
2022-07-31T16:56:34.316Z,24.74
2022-07-31T16:59:21.228Z,24.72
2022-07-31T17:02:08.112Z,24.77
2022-07-31T17:04:54.680Z,24.74
2022-07-31T17:07:42.439Z,24.68
2022-07-31T17:10:29.357Z,24.66
2022-07-31T17:13:17.848Z,24.63
2022-07-31T17:16:04.486Z,24.56
2022-07-31T17:18:54.533Z,24.54
2022-07-31T17:21:44.565Z,24.46
2022-07-31T17:24:32.140Z,24.50
2022-07-31T17:27:19.556Z,24.58
2022-07-31T17:30:09.225Z,24.58
2022-07-31T17:32:56.104Z,24.57
2022-07-31T17:35:42.637Z,24.64
2022-07-31T17:38:29.451Z,24.67
2022-07-31T17:41:24.591Z,24.57
2022-07-31T17:44:12.378Z,24.52
2022-07-31T17:47:03.678Z,24.46
2022-07-31T17:49:52.112Z,24.40
2022-07-31T17:52:39.013Z,24.27
2022-07-31T17:55:26.342Z,24.15
2022-07-31T17:58:13.004Z,24.14
2022-07-31T18:00:59.871Z,23.96
2022-07-31T18:03:50.043Z,23.70
2022-07-31T18:06:36.919Z,23.63
2022-07-31T18:09:24.205Z,23.55
2022-07-31T18:12:15.399Z,23.43
2022-07-31T18:15:02.497Z,23.31
2022-07-31T18:17:50.767Z,23.18
2022-07-31T18:20:39.106Z,23.06
2022-07-31T18:23:29.495Z,22.98
2022-07-31T18:26:19.006Z,22.88
2022-07-31T18:29:06.291Z,22.79
2022-07-31T18:31:53.108Z,22.71
2022-07-31T18:34:39.828Z,22.64
2022-07-31T18:37:29.695Z,22.53
2022-07-31T18:40:17.408Z,22.62
2022-07-31T18:43:09.621Z,22.52
2022-07-31T18:45:57.240Z,22.46
2022-07-31T18:48:43.982Z,22.44
2022-07-31T18:51:31.059Z,22.31
2022-07-31T18:54:20.027Z,22.32
2022-07-31T18:57:07.877Z,22.30
2022-07-31T18:59:54.637Z,22.26
2022-07-31T19:02:41.432Z,22.18
2022-07-31T19:05:54.703Z,22.12
2022-07-31T19:08:42.067Z,22.09
2022-07-31T19:11:34.883Z,22.02
2022-07-31T19:14:22.049Z,21.97
2022-07-31T19:17:21.559Z,21.93
2022-07-31T19:20:14.939Z,21.89
2022-07-31T19:23:18.474Z,21.85
2022-07-31T19:26:06.090Z,21.75
2022-07-31T19:28:53.924Z,21.70
2022-07-31T19:31:40.692Z,21.73
2022-07-31T19:34:27.554Z,21.69
2022-07-31T19:37:15.863Z,21.64
2022-07-31T19:40:02.499Z,21.58
2022-07-31T19:42:49.327Z,21.54
2022-07-31T19:45:37.468Z,21.49
2022-07-31T19:48:45.704Z,21.42
2022-07-31T19:51:33.775Z,21.39
2022-07-31T19:54:20.245Z,21.37
2022-07-31T19:57:07.153Z,21.34
2022-07-31T19:59:54.016Z,21.31
2022-07-31T20:02:42.481Z,21.27
2022-07-31T20:05:28.997Z,21.23
2022-07-31T20:08:15.756Z,21.22
2022-07-31T20:11:04.441Z,21.21
2022-07-31T20:13:51.162Z,21.19
2022-07-31T20:16:38.034Z,21.13
2022-07-31T20:19:26.184Z,21.06
2022-07-31T20:22:12.859Z,21.03
2022-07-31T20:24:59.672Z,20.99
2022-07-31T20:27:46.400Z,21.01
2022-07-31T20:30:33.224Z,20.99
2022-07-31T20:33:20.335Z,21.00
2022-07-31T20:36:10.192Z,20.97
2022-07-31T20:38:58.872Z,20.93
2022-07-31T20:41:47.464Z,20.90
2022-07-31T20:44:34.894Z,20.88
2022-07-31T20:47:24.594Z,20.85
2022-07-31T20:50:11.570Z,20.81
2022-07-31T20:52:59.604Z,20.85
2022-07-31T20:55:47.552Z,20.83
2022-07-31T20:58:34.252Z,20.83
2022-07-31T21:01:21.839Z,20.77
2022-07-31T21:04:09.782Z,20.71
2022-07-31T21:06:56.152Z,20.69
2022-07-31T21:09:44.411Z,20.66
2022-07-31T21:12:31.016Z,20.78
2022-07-31T21:15:40.710Z,20.87
2022-07-31T21:18:24.514Z,20.80
2022-07-31T21:21:14.188Z,20.92
2022-07-31T21:24:01.097Z,20.83
2022-07-31T21:26:51.906Z,20.74
2022-07-31T21:29:40.893Z,20.69
2022-07-31T21:32:28.234Z,20.65
2022-07-31T21:35:16.155Z,20.65
2022-07-31T21:38:23.230Z,20.68
2022-07-31T21:41:10.855Z,21.07
2022-07-31T21:44:00.041Z,21.04
2022-07-31T21:46:51.970Z,20.83
2022-07-31T21:49:40.011Z,20.64
2022-07-31T21:52:30.007Z,20.69
2022-07-31T21:55:16.649Z,20.78
2022-07-31T21:58:03.427Z,20.63
2022-07-31T22:00:51.622Z,20.46
2022-07-31T22:03:38.312Z,20.37
2022-07-31T22:06:42.912Z,20.34
2022-07-31T22:09:29.955Z,20.17
2022-07-31T22:12:16.633Z,20.16
2022-07-31T22:15:03.380Z,20.13
2022-07-31T22:17:51.458Z,19.97
2022-07-31T22:20:38.689Z,19.85
2022-07-31T22:23:26.152Z,19.90
2022-07-31T22:26:13.132Z,19.79
2022-07-31T22:29:00.502Z,19.73
2022-07-31T22:31:49.950Z,19.63
2022-07-31T22:34:42.300Z,19.64
2022-07-31T22:37:29.411Z,19.58
2022-07-31T22:40:17.439Z,19.47
2022-07-31T22:43:04.123Z,19.43
2022-07-31T22:46:13.485Z,19.44
2022-07-31T22:49:00.440Z,19.43
2022-07-31T22:51:48.614Z,19.40
2022-07-31T22:54:35.267Z,19.38
2022-07-31T22:57:23.026Z,19.35
2022-07-31T23:00:11.947Z,19.36
2022-07-31T23:02:58.665Z,19.36
2022-07-31T23:06:27.984Z,19.32
2022-07-31T23:08:55.058Z,19.34
2022-07-31T23:11:41.863Z,19.30
2022-07-31T23:14:30.094Z,19.39
2022-07-31T23:17:22.369Z,19.50
2022-07-31T23:20:11.335Z,19.41
2022-07-31T23:22:58.290Z,19.48
2022-07-31T23:25:46.441Z,19.38
2022-07-31T23:28:33.222Z,19.35
2022-07-31T23:31:20.764Z,19.31
2022-07-31T23:34:07.398Z,19.38
2022-07-31T23:36:54.131Z,19.44
2022-07-31T23:39:41.119Z,19.54
2022-07-31T23:42:43.012Z,19.64
2022-07-31T23:45:29.511Z,19.84
2022-07-31T23:48:18.308Z,19.97
2022-07-31T23:51:06.490Z,19.94
2022-07-31T23:53:53.483Z,20.02
2022-07-31T23:56:40.092Z,20.08
2022-07-31T23:59:34.137Z,20.06
